sensor_id;sensor_type;location;lat;lon;timestamp;P1;durP1;ratioP1;P2;durP2;ratioP2
30888;SDS011;51092;50.874;7.024;2023-11-19T00:00:47;1.55;;;0.95;;
30888;SDS011;51092;50.874;7.024;2023-11-19T00:01:49;1.80;;;0.90;;
30888;SDS011;51092;50.874;7.024;2023-11-19T00:02:51;2.60;;;1.10;;
30888;SDS011;51092;50.874;7.024;2023-11-19T00:03:53;1.23;;;0.90;;
30888;SDS011;51092;50.874;7.024;2023-11-19T00:04:55;0.60;;;0.60;;
30888;SDS011;51092;50.874;7.024;2023-11-19T00:05:57;1.10;;;1.00;;
30888;SDS011;51092;50.874;7.024;2023-11-19T00:06:59;1.30;;;0.60;;
30888;SDS011;51092;50.874;7.024;2023-11-19T00:08:04;0.98;;;0.88;;
30888;SDS011;51092;50.874;7.024;2023-11-19T00:09:07;2.42;;;1.08;;
30888;SDS011;51092;50.874;7.024;2023-11-19T00:10:10;1.10;;;0.68;;
30888;SDS011;51092;50.874;7.024;2023-11-19T00:11:12;0.80;;;0.52;;
30888;SDS011;51092;50.874;7.024;2023-11-19T00:12:16;0.80;;;0.60;;
30888;SDS011;51092;50.874;7.024;2023-11-19T00:13:18;0.65;;;0.50;;
30888;SDS011;51092;50.874;7.024;2023-11-19T00:14:20;0.85;;;0.68;;
30888;SDS011;51092;50.874;7.024;2023-11-19T00:15:22;1.77;;;0.80;;
30888;SDS011;51092;50.874;7.024;2023-11-19T00:16:26;1.10;;;0.70;;
30888;SDS011;51092;50.874;7.024;2023-11-19T00:17:27;0.50;;;0.50;;
30888;SDS011;51092;50.874;7.024;2023-11-19T00:18:30;0.65;;;0.65;;
30888;SDS011;51092;50.874;7.024;2023-11-19T00:19:31;0.50;;;0.50;;
30888;SDS011;51092;50.874;7.024;2023-11-19T00:20:34;0.55;;;0.55;;
30888;SDS011;51092;50.874;7.024;2023-11-19T00:21:35;0.70;;;0.60;;
30888;SDS011;51092;50.874;7.024;2023-11-19T00:22:37;0.57;;;0.50;;
30888;SDS011;51092;50.874;7.024;2023-11-19T00:23:39;3.15;;;0.70;;
30888;SDS011;51092;50.874;7.024;2023-11-19T00:24:41;1.15;;;0.75;;
30888;SDS011;51092;50.874;7.024;2023-11-19T00:25:43;0.90;;;0.77;;
30888;SDS011;51092;50.874;7.024;2023-11-19T00:26:45;0.85;;;0.65;;
30888;SDS011;51092;50.874;7.024;2023-11-19T00:27:47;1.42;;;0.80;;
30888;SDS011;51092;50.874;7.024;2023-11-19T00:28:49;1.13;;;0.55;;
30888;SDS011;51092;50.874;7.024;2023-11-19T00:29:51;3.03;;;0.75;;
30888;SDS011;51092;50.874;7.024;2023-11-19T00:30:52;0.85;;;0.77;;
30888;SDS011;51092;50.874;7.024;2023-11-19T00:31:57;0.95;;;0.70;;
30888;SDS011;51092;50.874;7.024;2023-11-19T00:32:58;1.02;;;0.70;;
30888;SDS011;51092;50.874;7.024;2023-11-19T00:34:01;0.80;;;0.65;;
30888;SDS011;51092;50.874;7.024;2023-11-19T00:35:03;0.50;;;0.50;;
30888;SDS011;51092;50.874;7.024;2023-11-19T00:36:07;0.60;;;0.50;;
30888;SDS011;51092;50.874;7.024;2023-11-19T00:37:08;1.02;;;0.75;;
30888;SDS011;51092;50.874;7.024;2023-11-19T00:38:11;1.00;;;0.57;;
30888;SDS011;51092;50.874;7.024;2023-11-19T00:39:12;1.00;;;0.70;;
30888;SDS011;51092;50.874;7.024;2023-11-19T00:40:15;1.35;;;0.75;;
30888;SDS011;51092;50.874;7.024;2023-11-19T00:41:18;0.80;;;0.63;;
30888;SDS011;51092;50.874;7.024;2023-11-19T00:42:20;0.70;;;0.50;;
30888;SDS011;51092;50.874;7.024;2023-11-19T00:43:21;2.38;;;0.60;;
30888;SDS011;51092;50.874;7.024;2023-11-19T00:44:24;0.57;;;0.50;;
30888;SDS011;51092;50.874;7.024;2023-11-19T00:45:26;0.55;;;0.55;;
30888;SDS011;51092;50.874;7.024;2023-11-19T00:46:29;0.75;;;0.40;;
30888;SDS011;51092;50.874;7.024;2023-11-19T00:47:33;1.23;;;0.50;;
30888;SDS011;51092;50.874;7.024;2023-11-19T00:48:35;1.90;;;0.50;;
30888;SDS011;51092;50.874;7.024;2023-11-19T00:49:37;2.42;;;0.75;;
30888;SDS011;51092;50.874;7.024;2023-11-19T00:50:38;0.50;;;0.50;;
30888;SDS011;51092;50.874;7.024;2023-11-19T00:51:44;1.05;;;0.50;;
30888;SDS011;51092;50.874;7.024;2023-11-19T00:52:46;1.92;;;0.70;;
30888;SDS011;51092;50.874;7.024;2023-11-19T00:53:48;0.60;;;0.60;;
30888;SDS011;51092;50.874;7.024;2023-11-19T00:54:50;4.03;;;0.73;;
30888;SDS011;51092;50.874;7.024;2023-11-19T00:55:52;1.10;;;0.55;;
30888;SDS011;51092;50.874;7.024;2023-11-19T00:56:54;0.90;;;0.60;;
30888;SDS011;51092;50.874;7.024;2023-11-19T00:57:57;0.60;;;0.43;;
30888;SDS011;51092;50.874;7.024;2023-11-19T00:58:58;0.52;;;0.52;;
30888;SDS011;51092;50.874;7.024;2023-11-19T01:00:01;0.60;;;0.60;;
30888;SDS011;51092;50.874;7.024;2023-11-19T01:01:07;1.35;;;0.90;;
30888;SDS011;51092;50.874;7.024;2023-11-19T01:02:09;0.80;;;0.80;;
30888;SDS011;51092;50.874;7.024;2023-11-19T01:03:12;2.53;;;0.60;;
30888;SDS011;51092;50.874;7.024;2023-11-19T01:04:15;0.85;;;0.80;;
30888;SDS011;51092;50.874;7.024;2023-11-19T01:05:17;1.27;;;0.52;;
30888;SDS011;51092;50.874;7.024;2023-11-19T01:06:28;0.93;;;0.70;;
30888;SDS011;51092;50.874;7.024;2023-11-19T01:07:31;2.17;;;0.95;;
30888;SDS011;51092;50.874;7.024;2023-11-19T01:08:32;1.85;;;0.60;;
30888;SDS011;51092;50.874;7.024;2023-11-19T01:09:36;1.38;;;0.93;;
30888;SDS011;51092;50.874;7.024;2023-11-19T01:10:37;1.80;;;0.68;;
30888;SDS011;51092;50.874;7.024;2023-11-19T01:11:40;0.90;;;0.70;;
30888;SDS011;51092;50.874;7.024;2023-11-19T01:12:41;1.75;;;0.80;;
30888;SDS011;51092;50.874;7.024;2023-11-19T01:13:43;1.13;;;0.95;;
30888;SDS011;51092;50.874;7.024;2023-11-19T01:14:46;0.90;;;0.75;;
30888;SDS011;51092;50.874;7.024;2023-11-19T01:15:48;1.02;;;0.77;;
30888;SDS011;51092;50.874;7.024;2023-11-19T01:16:50;0.95;;;0.90;;
30888;SDS011;51092;50.874;7.024;2023-11-19T01:17:52;2.30;;;1.13;;
30888;SDS011;51092;50.874;7.024;2023-11-19T01:18:55;0.57;;;0.57;;
30888;SDS011;51092;50.874;7.024;2023-11-19T01:19:57;0.95;;;0.73;;
30888;SDS011;51092;50.874;7.024;2023-11-19T01:20:58;1.23;;;0.80;;
30888;SDS011;51092;50.874;7.024;2023-11-19T01:22:01;0.73;;;0.73;;
30888;SDS011;51092;50.874;7.024;2023-11-19T01:23:03;1.55;;;0.80;;
30888;SDS011;51092;50.874;7.024;2023-11-19T01:24:06;0.50;;;0.50;;
30888;SDS011;51092;50.874;7.024;2023-11-19T01:25:10;1.27;;;0.70;;
30888;SDS011;51092;50.874;7.024;2023-11-19T01:26:13;2.05;;;0.75;;
30888;SDS011;51092;50.874;7.024;2023-11-19T01:27:14;1.00;;;0.80;;
30888;SDS011;51092;50.874;7.024;2023-11-19T01:28:17;1.33;;;0.77;;
30888;SDS011;51092;50.874;7.024;2023-11-19T01:29:19;2.92;;;0.80;;
30888;SDS011;51092;50.874;7.024;2023-11-19T01:30:22;2.50;;;0.80;;
30888;SDS011;51092;50.874;7.024;2023-11-19T01:31:23;0.75;;;0.63;;
30888;SDS011;51092;50.874;7.024;2023-11-19T01:32:24;1.52;;;0.50;;
30888;SDS011;51092;50.874;7.024;2023-11-19T01:33:27;1.45;;;0.60;;
30888;SDS011;51092;50.874;7.024;2023-11-19T01:34:30;0.80;;;0.57;;
30888;SDS011;51092;50.874;7.024;2023-11-19T01:35:32;1.42;;;0.70;;
30888;SDS011;51092;50.874;7.024;2023-11-19T01:36:34;2.92;;;0.60;;
30888;SDS011;51092;50.874;7.024;2023-11-19T01:37:36;0.90;;;0.60;;
30888;SDS011;51092;50.874;7.024;2023-11-19T01:38:38;0.85;;;0.60;;
30888;SDS011;51092;50.874;7.024;2023-11-19T01:39:43;1.02;;;0.80;;
30888;SDS011;51092;50.874;7.024;2023-11-19T01:40:44;4.78;;;1.90;;
30888;SDS011;51092;50.874;7.024;2023-11-19T01:41:46;0.65;;;0.60;;
30888;SDS011;51092;50.874;7.024;2023-11-19T01:42:48;0.70;;;0.60;;
30888;SDS011;51092;50.874;7.024;2023-11-19T01:43:50;0.50;;;0.40;;
30888;SDS011;51092;50.874;7.024;2023-11-19T01:44:59;0.50;;;0.50;;
30888;SDS011;51092;50.874;7.024;2023-11-19T01:46:02;0.50;;;0.50;;
30888;SDS011;51092;50.874;7.024;2023-11-19T01:47:05;2.65;;;0.70;;
30888;SDS011;51092;50.874;7.024;2023-11-19T01:48:07;0.98;;;0.60;;
30888;SDS011;51092;50.874;7.024;2023-11-19T01:49:12;2.08;;;0.52;;
30888;SDS011;51092;50.874;7.024;2023-11-19T01:50:17;0.73;;;0.70;;
30888;SDS011;51092;50.874;7.024;2023-11-19T01:51:20;0.65;;;0.60;;
30888;SDS011;51092;50.874;7.024;2023-11-19T01:52:22;0.93;;;0.63;;
30888;SDS011;51092;50.874;7.024;2023-11-19T01:53:27;1.38;;;0.60;;
30888;SDS011;51092;50.874;7.024;2023-11-19T01:54:28;0.35;;;0.35;;
30888;SDS011;51092;50.874;7.024;2023-11-19T01:55:31;0.52;;;0.52;;
30888;SDS011;51092;50.874;7.024;2023-11-19T01:56:33;2.38;;;0.40;;
30888;SDS011;51092;50.874;7.024;2023-11-19T01:57:36;0.80;;;0.80;;
30888;SDS011;51092;50.874;7.024;2023-11-19T01:58:39;0.57;;;0.57;;
30888;SDS011;51092;50.874;7.024;2023-11-19T01:59:42;0.77;;;0.77;;
30888;SDS011;51092;50.874;7.024;2023-11-19T02:00:45;2.10;;;0.55;;
30888;SDS011;51092;50.874;7.024;2023-11-19T02:01:47;1.30;;;0.70;;
30888;SDS011;51092;50.874;7.024;2023-11-19T02:02:49;2.25;;;0.70;;
30888;SDS011;51092;50.874;7.024;2023-11-19T02:03:52;0.43;;;0.43;;
30888;SDS011;51092;50.874;7.024;2023-11-19T02:04:55;0.90;;;0.40;;
30888;SDS011;51092;50.874;7.024;2023-11-19T02:05:59;0.70;;;0.40;;
30888;SDS011;51092;50.874;7.024;2023-11-19T02:07:02;0.65;;;0.63;;
30888;SDS011;51092;50.874;7.024;2023-11-19T02:08:03;1.73;;;0.77;;
30888;SDS011;51092;50.874;7.024;2023-11-19T02:09:06;0.63;;;0.50;;
30888;SDS011;51092;50.874;7.024;2023-11-19T02:10:08;0.55;;;0.55;;
30888;SDS011;51092;50.874;7.024;2023-11-19T02:11:15;0.45;;;0.45;;
30888;SDS011;51092;50.874;7.024;2023-11-19T02:12:16;1.27;;;0.65;;
30888;SDS011;51092;50.874;7.024;2023-11-19T02:13:21;2.67;;;0.70;;
30888;SDS011;51092;50.874;7.024;2023-11-19T02:14:23;0.65;;;0.65;;
30888;SDS011;51092;50.874;7.024;2023-11-19T02:15:27;1.13;;;0.80;;
30888;SDS011;51092;50.874;7.024;2023-11-19T02:16:29;1.27;;;0.75;;
30888;SDS011;51092;50.874;7.024;2023-11-19T02:17:31;3.05;;;0.77;;
30888;SDS011;51092;50.874;7.024;2023-11-19T02:18:33;1.65;;;0.70;;
30888;SDS011;51092;50.874;7.024;2023-11-19T02:19:36;0.90;;;0.80;;
30888;SDS011;51092;50.874;7.024;2023-11-19T02:20:38;2.08;;;0.70;;
30888;SDS011;51092;50.874;7.024;2023-11-19T02:21:42;3.38;;;1.30;;
30888;SDS011;51092;50.874;7.024;2023-11-19T02:22:44;1.17;;;0.70;;
30888;SDS011;51092;50.874;7.024;2023-11-19T02:23:47;1.25;;;0.60;;
30888;SDS011;51092;50.874;7.024;2023-11-19T02:24:49;1.75;;;1.00;;
30888;SDS011;51092;50.874;7.024;2023-11-19T02:26:00;1.63;;;0.85;;
30888;SDS011;51092;50.874;7.024;2023-11-19T02:27:06;1.27;;;0.75;;
30888;SDS011;51092;50.874;7.024;2023-11-19T02:28:18;0.70;;;0.70;;
30888;SDS011;51092;50.874;7.024;2023-11-19T02:29:20;4.15;;;1.05;;
30888;SDS011;51092;50.874;7.024;2023-11-19T02:30:23;1.88;;;0.88;;
30888;SDS011;51092;50.874;7.024;2023-11-19T02:31:27;2.05;;;0.70;;
30888;SDS011;51092;50.874;7.024;2023-11-19T02:32:29;1.30;;;0.70;;
30888;SDS011;51092;50.874;7.024;2023-11-19T02:33:31;3.22;;;0.93;;
30888;SDS011;51092;50.874;7.024;2023-11-19T02:34:34;1.60;;;0.50;;
30888;SDS011;51092;50.874;7.024;2023-11-19T02:35:36;2.17;;;0.63;;
30888;SDS011;51092;50.874;7.024;2023-11-19T02:36:38;2.72;;;0.60;;
30888;SDS011;51092;50.874;7.024;2023-11-19T02:37:42;2.35;;;0.60;;
30888;SDS011;51092;50.874;7.024;2023-11-19T02:38:45;1.02;;;0.70;;
30888;SDS011;51092;50.874;7.024;2023-11-19T02:39:47;1.08;;;0.85;;
30888;SDS011;51092;50.874;7.024;2023-11-19T02:40:49;0.65;;;0.60;;
30888;SDS011;51092;50.874;7.024;2023-11-19T02:41:51;1.42;;;0.60;;
30888;SDS011;51092;50.874;7.024;2023-11-19T02:42:53;2.65;;;0.90;;
30888;SDS011;51092;50.874;7.024;2023-11-19T02:43:57;2.35;;;1.35;;
30888;SDS011;51092;50.874;7.024;2023-11-19T02:45:00;1.90;;;0.98;;
30888;SDS011;51092;50.874;7.024;2023-11-19T02:46:01;1.08;;;0.68;;
30888;SDS011;51092;50.874;7.024;2023-11-19T02:47:07;1.60;;;1.13;;
30888;SDS011;51092;50.874;7.024;2023-11-19T02:48:09;1.02;;;0.68;;
30888;SDS011;51092;50.874;7.024;2023-11-19T02:49:11;0.60;;;0.60;;
30888;SDS011;51092;50.874;7.024;2023-11-19T02:50:13;1.60;;;0.82;;
30888;SDS011;51092;50.874;7.024;2023-11-19T02:51:15;3.40;;;0.82;;
30888;SDS011;51092;50.874;7.024;2023-11-19T02:52:19;1.75;;;0.60;;
30888;SDS011;51092;50.874;7.024;2023-11-19T02:53:20;1.02;;;0.77;;
30888;SDS011;51092;50.874;7.024;2023-11-19T02:54:24;1.50;;;0.77;;
30888;SDS011;51092;50.874;7.024;2023-11-19T02:55:28;3.55;;;0.75;;
30888;SDS011;51092;50.874;7.024;2023-11-19T02:56:35;1.45;;;0.80;;
30888;SDS011;51092;50.874;7.024;2023-11-19T02:57:38;3.40;;;0.73;;
30888;SDS011;51092;50.874;7.024;2023-11-19T02:58:42;2.03;;;0.80;;
30888;SDS011;51092;50.874;7.024;2023-11-19T02:59:46;1.48;;;0.70;;
30888;SDS011;51092;50.874;7.024;2023-11-19T03:00:48;1.45;;;0.85;;
30888;SDS011;51092;50.874;7.024;2023-11-19T03:01:57;1.85;;;0.60;;
30888;SDS011;51092;50.874;7.024;2023-11-19T03:03:00;2.55;;;1.00;;
30888;SDS011;51092;50.874;7.024;2023-11-19T03:04:10;1.90;;;0.70;;
30888;SDS011;51092;50.874;7.024;2023-11-19T03:05:13;1.42;;;0.90;;
30888;SDS011;51092;50.874;7.024;2023-11-19T03:06:15;2.00;;;0.80;;
30888;SDS011;51092;50.874;7.024;2023-11-19T03:07:17;4.32;;;0.70;;
30888;SDS011;51092;50.874;7.024;2023-11-19T03:08:19;2.15;;;0.95;;
30888;SDS011;51092;50.874;7.024;2023-11-19T03:09:20;1.60;;;0.90;;
30888;SDS011;51092;50.874;7.024;2023-11-19T03:10:25;2.85;;;0.93;;
30888;SDS011;51092;50.874;7.024;2023-11-19T03:11:26;1.98;;;0.90;;
30888;SDS011;51092;50.874;7.024;2023-11-19T03:12:29;6.50;;;1.55;;
30888;SDS011;51092;50.874;7.024;2023-11-19T03:13:31;2.97;;;0.85;;
30888;SDS011;51092;50.874;7.024;2023-11-19T03:14:33;5.00;;;1.17;;
30888;SDS011;51092;50.874;7.024;2023-11-19T03:15:36;2.30;;;0.80;;
30888;SDS011;51092;50.874;7.024;2023-11-19T03:16:39;2.20;;;0.80;;
30888;SDS011;51092;50.874;7.024;2023-11-19T03:17:40;3.47;;;1.17;;
30888;SDS011;51092;50.874;7.024;2023-11-19T03:18:44;1.67;;;0.70;;
30888;SDS011;51092;50.874;7.024;2023-11-19T03:19:45;1.90;;;0.77;;
30888;SDS011;51092;50.874;7.024;2023-11-19T03:20:47;2.72;;;0.70;;
30888;SDS011;51092;50.874;7.024;2023-11-19T03:21:50;2.13;;;0.90;;
30888;SDS011;51092;50.874;7.024;2023-11-19T03:22:51;3.70;;;1.17;;
30888;SDS011;51092;50.874;7.024;2023-11-19T03:23:54;4.10;;;0.77;;
30888;SDS011;51092;50.874;7.024;2023-11-19T03:24:56;3.20;;;1.00;;
30888;SDS011;51092;50.874;7.024;2023-11-19T03:25:58;2.80;;;1.10;;
30888;SDS011;51092;50.874;7.024;2023-11-19T03:27:00;5.82;;;1.27;;
30888;SDS011;51092;50.874;7.024;2023-11-19T03:28:02;6.15;;;1.20;;
30888;SDS011;51092;50.874;7.024;2023-11-19T03:29:04;2.40;;;1.23;;
30888;SDS011;51092;50.874;7.024;2023-11-19T03:30:07;4.90;;;2.15;;
30888;SDS011;51092;50.874;7.024;2023-11-19T03:31:11;6.90;;;1.35;;
30888;SDS011;51092;50.874;7.024;2023-11-19T03:32:14;4.68;;;1.58;;
30888;SDS011;51092;50.874;7.024;2023-11-19T03:33:16;5.70;;;1.58;;
30888;SDS011;51092;50.874;7.024;2023-11-19T03:34:18;9.27;;;1.90;;
30888;SDS011;51092;50.874;7.024;2023-11-19T03:35:20;11.43;;;2.08;;
30888;SDS011;51092;50.874;7.024;2023-11-19T03:36:21;11.23;;;2.97;;
30888;SDS011;51092;50.874;7.024;2023-11-19T03:37:24;8.25;;;1.60;;
30888;SDS011;51092;50.874;7.024;2023-11-19T03:38:26;5.60;;;2.05;;
30888;SDS011;51092;50.874;7.024;2023-11-19T03:39:28;5.10;;;1.75;;
30888;SDS011;51092;50.874;7.024;2023-11-19T03:40:30;10.30;;;2.35;;
30888;SDS011;51092;50.874;7.024;2023-11-19T03:41:32;10.88;;;2.35;;
30888;SDS011;51092;50.874;7.024;2023-11-19T03:42:34;9.30;;;2.17;;
30888;SDS011;51092;50.874;7.024;2023-11-19T03:43:35;11.10;;;3.58;;
30888;SDS011;51092;50.874;7.024;2023-11-19T03:44:37;15.63;;;2.75;;
30888;SDS011;51092;50.874;7.024;2023-11-19T03:45:39;13.38;;;3.15;;
30888;SDS011;51092;50.874;7.024;2023-11-19T03:46:43;12.98;;;3.58;;
30888;SDS011;51092;50.874;7.024;2023-11-19T03:47:44;22.35;;;4.00;;
30888;SDS011;51092;50.874;7.024;2023-11-19T03:48:47;14.95;;;3.25;;
30888;SDS011;51092;50.874;7.024;2023-11-19T03:49:50;12.07;;;2.65;;
30888;SDS011;51092;50.874;7.024;2023-11-19T03:50:52;12.18;;;2.80;;
30888;SDS011;51092;50.874;7.024;2023-11-19T03:51:54;11.95;;;3.25;;
30888;SDS011;51092;50.874;7.024;2023-11-19T03:52:56;14.23;;;3.20;;
30888;SDS011;51092;50.874;7.024;2023-11-19T03:53:58;9.98;;;2.65;;
30888;SDS011;51092;50.874;7.024;2023-11-19T03:55:00;12.30;;;2.35;;
30888;SDS011;51092;50.874;7.024;2023-11-19T03:56:03;15.45;;;3.92;;
30888;SDS011;51092;50.874;7.024;2023-11-19T03:57:06;9.75;;;2.58;;
30888;SDS011;51092;50.874;7.024;2023-11-19T03:58:08;14.32;;;2.65;;
30888;SDS011;51092;50.874;7.024;2023-11-19T03:59:10;15.52;;;2.78;;
30888;SDS011;51092;50.874;7.024;2023-11-19T04:00:13;16.60;;;3.70;;
30888;SDS011;51092;50.874;7.024;2023-11-19T04:01:15;18.90;;;2.97;;
30888;SDS011;51092;50.874;7.024;2023-11-19T04:02:18;12.43;;;2.78;;
30888;SDS011;51092;50.874;7.024;2023-11-19T04:03:21;11.95;;;2.40;;
30888;SDS011;51092;50.874;7.024;2023-11-19T04:04:22;12.55;;;2.97;;
30888;SDS011;51092;50.874;7.024;2023-11-19T04:05:24;13.52;;;2.72;;
30888;SDS011;51092;50.874;7.024;2023-11-19T04:06:26;11.52;;;2.50;;
30888;SDS011;51092;50.874;7.024;2023-11-19T04:07:27;14.15;;;3.00;;
30888;SDS011;51092;50.874;7.024;2023-11-19T04:08:29;13.55;;;2.55;;
30888;SDS011;51092;50.874;7.024;2023-11-19T04:09:31;14.65;;;2.42;;
30888;SDS011;51092;50.874;7.024;2023-11-19T04:10:33;12.13;;;2.47;;
30888;SDS011;51092;50.874;7.024;2023-11-19T04:11:36;12.15;;;2.80;;
30888;SDS011;51092;50.874;7.024;2023-11-19T04:12:37;11.65;;;3.63;;
30888;SDS011;51092;50.874;7.024;2023-11-19T04:13:40;9.70;;;2.70;;
30888;SDS011;51092;50.874;7.024;2023-11-19T04:14:41;10.32;;;2.38;;
30888;SDS011;51092;50.874;7.024;2023-11-19T04:15:45;9.75;;;2.47;;
30888;SDS011;51092;50.874;7.024;2023-11-19T04:16:46;15.88;;;2.67;;
30888;SDS011;51092;50.874;7.024;2023-11-19T04:17:50;16.60;;;3.10;;
30888;SDS011;51092;50.874;7.024;2023-11-19T04:18:52;13.93;;;2.55;;
30888;SDS011;51092;50.874;7.024;2023-11-19T04:19:54;9.82;;;2.90;;
30888;SDS011;51092;50.874;7.024;2023-11-19T04:20:56;13.07;;;2.67;;
30888;SDS011;51092;50.874;7.024;2023-11-19T04:21:58;13.85;;;2.47;;
30888;SDS011;51092;50.874;7.024;2023-11-19T04:23:00;11.73;;;2.30;;
30888;SDS011;51092;50.874;7.024;2023-11-19T04:24:02;14.75;;;2.80;;
30888;SDS011;51092;50.874;7.024;2023-11-19T04:25:04;10.98;;;2.70;;
30888;SDS011;51092;50.874;7.024;2023-11-19T04:26:07;11.27;;;2.35;;
30888;SDS011;51092;50.874;7.024;2023-11-19T04:27:09;9.93;;;2.50;;
30888;SDS011;51092;50.874;7.024;2023-11-19T04:28:11;19.70;;;3.42;;
30888;SDS011;51092;50.874;7.024;2023-11-19T04:29:13;11.07;;;3.03;;
30888;SDS011;51092;50.874;7.024;2023-11-19T04:30:17;10.45;;;2.88;;
30888;SDS011;51092;50.874;7.024;2023-11-19T04:31:19;12.00;;;2.83;;
30888;SDS011;51092;50.874;7.024;2023-11-19T04:32:21;11.65;;;2.22;;
30888;SDS011;51092;50.874;7.024;2023-11-19T04:33:24;13.70;;;2.75;;
30888;SDS011;51092;50.874;7.024;2023-11-19T04:34:27;10.52;;;2.47;;
30888;SDS011;51092;50.874;7.024;2023-11-19T04:35:28;12.65;;;2.70;;
30888;SDS011;51092;50.874;7.024;2023-11-19T04:36:31;9.52;;;2.53;;
30888;SDS011;51092;50.874;7.024;2023-11-19T04:37:33;13.10;;;2.83;;
30888;SDS011;51092;50.874;7.024;2023-11-19T04:38:36;13.15;;;3.25;;
30888;SDS011;51092;50.874;7.024;2023-11-19T04:39:39;11.95;;;2.20;;
30888;SDS011;51092;50.874;7.024;2023-11-19T04:40:41;9.10;;;2.08;;
30888;SDS011;51092;50.874;7.024;2023-11-19T04:41:46;13.25;;;2.03;;
30888;SDS011;51092;50.874;7.024;2023-11-19T04:42:49;10.05;;;2.53;;
30888;SDS011;51092;50.874;7.024;2023-11-19T04:43:51;11.52;;;2.90;;
30888;SDS011;51092;50.874;7.024;2023-11-19T04:44:53;11.05;;;2.13;;
30888;SDS011;51092;50.874;7.024;2023-11-19T04:45:55;11.48;;;2.95;;
30888;SDS011;51092;50.874;7.024;2023-11-19T04:46:57;12.88;;;2.92;;
30888;SDS011;51092;50.874;7.024;2023-11-19T04:47:59;8.40;;;2.33;;
30888;SDS011;51092;50.874;7.024;2023-11-19T04:49:03;10.65;;;2.33;;
30888;SDS011;51092;50.874;7.024;2023-11-19T04:50:05;9.35;;;2.70;;
30888;SDS011;51092;50.874;7.024;2023-11-19T04:51:11;10.65;;;2.50;;
30888;SDS011;51092;50.874;7.024;2023-11-19T04:52:12;14.52;;;3.13;;
30888;SDS011;51092;50.874;7.024;2023-11-19T04:53:15;10.82;;;1.70;;
30888;SDS011;51092;50.874;7.024;2023-11-19T04:54:17;10.68;;;2.60;;
30888;SDS011;51092;50.874;7.024;2023-11-19T04:55:19;11.18;;;2.53;;
30888;SDS011;51092;50.874;7.024;2023-11-19T04:56:20;12.65;;;2.85;;
30888;SDS011;51092;50.874;7.024;2023-11-19T04:57:23;9.95;;;2.75;;
30888;SDS011;51092;50.874;7.024;2023-11-19T04:58:25;13.55;;;2.83;;
30888;SDS011;51092;50.874;7.024;2023-11-19T04:59:27;13.85;;;2.35;;
30888;SDS011;51092;50.874;7.024;2023-11-19T05:00:29;11.93;;;2.83;;
30888;SDS011;51092;50.874;7.024;2023-11-19T05:01:31;12.32;;;3.15;;
30888;SDS011;51092;50.874;7.024;2023-11-19T05:02:33;13.23;;;2.78;;
30888;SDS011;51092;50.874;7.024;2023-11-19T05:03:36;13.95;;;3.42;;
30888;SDS011;51092;50.874;7.024;2023-11-19T05:04:41;9.40;;;2.60;;
30888;SDS011;51092;50.874;7.024;2023-11-19T05:05:44;11.73;;;2.15;;
30888;SDS011;51092;50.874;7.024;2023-11-19T05:06:45;12.88;;;2.70;;
30888;SDS011;51092;50.874;7.024;2023-11-19T05:07:48;16.05;;;3.65;;
30888;SDS011;51092;50.874;7.024;2023-11-19T05:08:49;11.82;;;3.17;;
30888;SDS011;51092;50.874;7.024;2023-11-19T05:09:52;12.45;;;2.58;;
30888;SDS011;51092;50.874;7.024;2023-11-19T05:10:53;12.40;;;3.08;;
30888;SDS011;51092;50.874;7.024;2023-11-19T05:11:55;14.98;;;3.45;;
30888;SDS011;51092;50.874;7.024;2023-11-19T05:12:57;11.23;;;2.53;;
30888;SDS011;51092;50.874;7.024;2023-11-19T05:13:59;14.75;;;3.25;;
30888;SDS011;51092;50.874;7.024;2023-11-19T05:15:02;8.10;;;2.35;;
30888;SDS011;51092;50.874;7.024;2023-11-19T05:16:04;8.30;;;2.28;;
30888;SDS011;51092;50.874;7.024;2023-11-19T05:17:06;13.32;;;2.78;;
30888;SDS011;51092;50.874;7.024;2023-11-19T05:18:09;16.08;;;3.67;;
30888;SDS011;51092;50.874;7.024;2023-11-19T05:19:10;9.82;;;3.10;;
30888;SDS011;51092;50.874;7.024;2023-11-19T05:20:14;9.20;;;2.67;;
30888;SDS011;51092;50.874;7.024;2023-11-19T05:21:16;13.05;;;3.30;;
30888;SDS011;51092;50.874;7.024;2023-11-19T05:22:19;15.13;;;2.33;;
30888;SDS011;51092;50.874;7.024;2023-11-19T05:23:21;12.00;;;3.17;;
30888;SDS011;51092;50.874;7.024;2023-11-19T05:24:23;15.15;;;2.83;;
30888;SDS011;51092;50.874;7.024;2023-11-19T05:25:25;15.35;;;3.60;;
30888;SDS011;51092;50.874;7.024;2023-11-19T05:26:27;17.60;;;2.97;;
30888;SDS011;51092;50.874;7.024;2023-11-19T05:27:29;9.38;;;2.47;;
30888;SDS011;51092;50.874;7.024;2023-11-19T05:28:31;16.02;;;3.05;;
30888;SDS011;51092;50.874;7.024;2023-11-19T05:29:33;20.52;;;4.50;;
30888;SDS011;51092;50.874;7.024;2023-11-19T05:30:36;16.00;;;3.17;;
30888;SDS011;51092;50.874;7.024;2023-11-19T05:31:37;16.25;;;3.92;;
30888;SDS011;51092;50.874;7.024;2023-11-19T05:32:40;14.02;;;2.88;;
30888;SDS011;51092;50.874;7.024;2023-11-19T05:33:41;13.65;;;3.20;;
30888;SDS011;51092;50.874;7.024;2023-11-19T05:34:44;15.63;;;3.10;;
30888;SDS011;51092;50.874;7.024;2023-11-19T05:35:47;16.75;;;3.75;;
30888;SDS011;51092;50.874;7.024;2023-11-19T05:36:49;15.80;;;3.03;;
30888;SDS011;51092;50.874;7.024;2023-11-19T05:37:51;11.05;;;3.13;;
30888;SDS011;51092;50.874;7.024;2023-11-19T05:38:54;13.50;;;2.65;;
30888;SDS011;51092;50.874;7.024;2023-11-19T05:39:55;15.02;;;3.35;;
30888;SDS011;51092;50.874;7.024;2023-11-19T05:41:00;14.70;;;3.20;;
30888;SDS011;51092;50.874;7.024;2023-11-19T05:42:02;14.02;;;3.53;;
30888;SDS011;51092;50.874;7.024;2023-11-19T05:43:05;13.07;;;2.85;;
30888;SDS011;51092;50.874;7.024;2023-11-19T05:44:07;17.85;;;3.85;;
30888;SDS011;51092;50.874;7.024;2023-11-19T05:45:11;18.60;;;4.22;;
30888;SDS011;51092;50.874;7.024;2023-11-19T05:46:13;17.17;;;4.03;;
30888;SDS011;51092;50.874;7.024;2023-11-19T05:47:15;24.83;;;4.05;;
30888;SDS011;51092;50.874;7.024;2023-11-19T05:48:17;23.25;;;4.00;;
30888;SDS011;51092;50.874;7.024;2023-11-19T05:49:19;16.08;;;3.42;;
30888;SDS011;51092;50.874;7.024;2023-11-19T05:50:21;14.82;;;3.78;;
30888;SDS011;51092;50.874;7.024;2023-11-19T05:51:24;21.67;;;3.42;;
30888;SDS011;51092;50.874;7.024;2023-11-19T05:52:26;19.48;;;4.38;;
30888;SDS011;51092;50.874;7.024;2023-11-19T05:53:33;14.98;;;3.10;;
30888;SDS011;51092;50.874;7.024;2023-11-19T05:54:35;17.27;;;3.13;;
30888;SDS011;51092;50.874;7.024;2023-11-19T05:55:38;25.10;;;4.25;;
30888;SDS011;51092;50.874;7.024;2023-11-19T05:56:47;18.00;;;4.10;;
30888;SDS011;51092;50.874;7.024;2023-11-19T05:57:50;22.73;;;3.72;;
30888;SDS011;51092;50.874;7.024;2023-11-19T05:58:52;23.55;;;4.30;;
30888;SDS011;51092;50.874;7.024;2023-11-19T05:59:55;23.65;;;5.18;;
30888;SDS011;51092;50.874;7.024;2023-11-19T06:00:56;17.52;;;3.05;;
30888;SDS011;51092;50.874;7.024;2023-11-19T06:01:58;16.83;;;3.25;;
30888;SDS011;51092;50.874;7.024;2023-11-19T06:02:59;18.80;;;5.22;;
30888;SDS011;51092;50.874;7.024;2023-11-19T06:04:00;17.55;;;4.20;;
30888;SDS011;51092;50.874;7.024;2023-11-19T06:05:02;13.45;;;3.08;;
30888;SDS011;51092;50.874;7.024;2023-11-19T06:06:06;16.35;;;4.03;;
30888;SDS011;51092;50.874;7.024;2023-11-19T06:07:10;21.50;;;5.15;;
30888;SDS011;51092;50.874;7.024;2023-11-19T06:08:11;19.90;;;4.05;;
30888;SDS011;51092;50.874;7.024;2023-11-19T06:09:17;25.42;;;4.88;;
30888;SDS011;51092;50.874;7.024;2023-11-19T06:10:19;15.90;;;4.03;;
30888;SDS011;51092;50.874;7.024;2023-11-19T06:11:21;24.05;;;4.47;;
30888;SDS011;51092;50.874;7.024;2023-11-19T06:12:23;18.73;;;3.55;;
30888;SDS011;51092;50.874;7.024;2023-11-19T06:13:24;19.90;;;4.85;;
30888;SDS011;51092;50.874;7.024;2023-11-19T06:14:27;18.67;;;4.00;;
30888;SDS011;51092;50.874;7.024;2023-11-19T06:15:28;21.15;;;4.50;;